• Join FlightAware (Why Join?)
  • Login
  • US Flag GB Flag 
06:28 EDT


 

Airport Tracker/Info


-or-


 

Live Flight TrackerFlight Track Log ✈ DAL268 ✈ 13-Sep-2013 ✈ KSFO - KJFK

Flight Track Log - Related Links

Times and Time Zones

All times are in EDT time to prevent confusion due to time zone crossing. See the DAL268 flight status page for this flight to view local times or setup timezone preferences in your user account.

Time Position Orientation Groundspeed Altitude Reporting Facility
EDT Latitude Longitude Course Direction KTS MPH feet Rate Location/Type
14:47 37.6244 -122.3690 142° Southeast 163 188 300  Level FlightAware ADS-B
14:47 37.6261 -122.3680 25° Northeast 167 192 400 1,500 Climbing FlightAware ADS-B
14:47 37.6268 -122.3680 360° North 163 188 400 1,980 Level FlightAware ADS-B
14:47 37.6280 -122.3670 33° Northeast 162 186 500 2,520 Climbing FlightAware ADS-B
14:47 37.6316 -122.3640 33° Northeast 162 186 700 1,980 Climbing FlightAware ADS-B
14:47 37.6322 -122.3640 360° North 161 185 700 2,400 Level FlightAware ADS-B
14:47 37.6349 -122.3620 30° Northeast 166 191 900 1,980 Climbing FlightAware ADS-B
14:47 37.6384 -122.3600 24° Northeast 173 199 1,000 1,620 Climbing FlightAware ADS-B
14:49 37.6884 -122.2870 49° Northeast 261 300 3,200 2,160 Climbing FlightAware ADS-B
14:49 37.7450 -122.2520 26° Northeast 269 310 5,700 2,820 Climbing FlightAware
14:50 37.7720 -122.2240 39° Northeast 281 323 7,000 2,700 Climbing FlightAware
14:51 37.7940 -122.1600 66° East 286 329 8,900 2,220 Climbing FlightAware
14:52 37.8170 -122.0690 72° East 323 372 10,700 1,680 Climbing FlightAware
14:52 37.8340 -121.9990 73° East 359 413 11,500 1,680 Climbing FlightAware
14:53 37.8539 -121.9220 72° East 376 433 12,800 2,160 Climbing FlightAware ADS-B
14:53 37.8700 -121.8560 73° East 376 433 14,000 2,280 Climbing FlightAware ADS-B
14:54 37.8862 -121.7900 73° East 389 448 15,200 2,100 Climbing FlightAware ADS-B
14:54 37.9060 -121.7080 73° East 400 460 16,400 1,740 Climbing FlightAware
14:55 37.9229 -121.6380 73° East 413 475 17,200 1,680 Climbing FlightAware ADS-B
14:55 37.9428 -121.5550 73° East 422 486 18,300 1,740 Climbing FlightAware ADS-B
14:56 37.9670 -121.4550 73° East 433 498 19,500 1,680 Climbing FlightAware
14:57 37.9860 -121.3770 73° East 438 504 20,400 1,800 Climbing FlightAware
14:57 38.0003 -121.3160 73° East 432 497 21,200 1,560 Climbing FlightAware ADS-B
14:58 38.0290 -121.1980 73° East 457 526 22,300 1,440 Climbing FlightAware
14:58 38.0570 -121.1110 68° East 459 528 23,200 1,620 Climbing FlightAware
14:59 38.0890 -121.0310 63° Northeast 463 533 24,200 1,620 Climbing FlightAware
15:00 38.1270 -120.9380 63° Northeast 467 537 25,200 1,440 Climbing FlightAware
15:00 38.1590 -120.8470 66° East 477 549 26,000 1,380 Climbing FlightAware
15:01 38.1790 -120.7600 74° East 485 558 26,800 1,320 Climbing FlightAware
15:01 38.1960 -120.6580 78° East 491 565 27,500 1,200 Climbing FlightAware
15:02 38.2140 -120.5570 77° East 497 572 28,300 1,200 Climbing FlightAware
15:03 38.2300 -120.4640 78° East 502 578 28,900 1,440 Climbing FlightAware
15:03 38.2480 -120.3570 78° East 498 573 30,000 1,500 Climbing FlightAware
15:04 38.2640 -120.2650 77° East 499 574 30,700 1,320 Climbing FlightAware
15:04 38.2810 -120.1610 78° East 501 577 31,500 1,260 Climbing FlightAware
15:05 38.2980 -120.0550 78° East 502 578 32,300 1,200 Climbing FlightAware
15:05 38.3130 -119.9660 78° East 503 579 32,900 1,140 Climbing FlightAware
15:06 38.3280 -119.8760 78° East 504 580 33,500 1,140 Climbing FlightAware
15:07 38.3460 -119.7650 78° East 506 582 34,200 1,080 Climbing FlightAware
15:07 38.3640 -119.6540 78° East 504 580 34,900 1,320 Climbing FlightAware
15:08 38.3810 -119.5490 78° East 497 572 35,900 1,320 Climbing FlightAware
15:08 38.3960 -119.4530 79° East 493 567 36,500 900 Climbing FlightAware
15:09 38.4130 -119.3470 78° East 493 567 37,000 420 Climbing FlightAware
15:10 38.4280 -119.2540 78° East 495 570 37,000  Level FlightAware
15:10 38.4430 -119.1590 79° East 492 566 37,000  Level FlightAware
15:11 38.4580 -119.0650 78° East 490 564 37,000  Level FlightAware
15:11 38.4800 -118.9250 79° East 490 564 37,000  Level FlightAware
15:12 38.4940 -118.8350 79° East 488 562 37,000  Level FlightAware
15:13 38.5120 -118.7190 79° East 486 559 37,000  Level FlightAware
15:13 38.5270 -118.6240 79° East 485 558 37,000  Level FlightAware
15:14 38.5420 -118.5240 79° East 485 558 37,000  Level FlightAware
15:14 38.5570 -118.4250 79° East 484 557 37,000  Level FlightAware
15:15 38.5740 -118.3200 78° East 483 556 37,000  Level FlightAware
15:16 38.5880 -118.2230 80° East 483 556 37,000  Level FlightAware
15:16 38.6030 -118.1230 79° East 483 556 37,000  Level FlightAware
15:17 38.6180 -118.0240 79° East 483 556 37,000  Level FlightAware
15:17 38.6310 -117.9410 79° East 483 556 37,000  Level FlightAware
15:18 38.6440 -117.8550 79° East 483 556 37,000  Level FlightAware
15:19 38.6570 -117.7690 79° East 483 556 37,000  Level FlightAware
15:19 38.6700 -117.6830 79° East 483 556 37,000  Level FlightAware
15:20 38.6830 -117.5970 79° East 483 556 37,000  Level FlightAware
15:20 38.6960 -117.5090 79° East 483 556 37,000  Level FlightAware
15:21 38.7090 -117.4230 79° East 483 556 37,000  Level FlightAware
15:22 38.7220 -117.3370 79° East 483 556 37,000  Level FlightAware
15:22 38.7350 -117.2510 79° East 483 556 37,000  Level FlightAware
15:23 38.7600 -117.0430 81° East 484 557 37,000  Level FlightAware
15:23 38.7750 -116.9390 79° East 484 557 37,000  Level FlightAware
15:24 38.7880 -116.8530 79° East 484 557 37,000  Level FlightAware
15:25 38.8020 -116.7640 79° East 484 557 37,000  Level FlightAware
15:25 38.8140 -116.6830 79° East 484 557 37,000  Level FlightAware
15:26 38.8280 -116.5940 79° East 484 557 37,000  Level FlightAware
15:26 38.8410 -116.5050 79° East 484 557 37,000  Level FlightAware
15:27 38.8540 -116.4190 79° East 484 557 37,000  Level FlightAware
15:28 38.8670 -116.3320 79° East 484 557 37,000  Level FlightAware
15:28 38.8800 -116.2460 79° East 484 557 37,000  Level FlightAware
15:29 38.8930 -116.1600 79° East 484 557 37,000  Level FlightAware
15:29 38.9060 -116.0730 79° East 484 557 37,000  Level FlightAware
15:30 38.9240 -115.9580 79° East 484 557 37,000  Level FlightAware
15:31 38.9370 -115.8710 79° East 484 557 37,000  Level FlightAware
15:31 38.9500 -115.7850 79° East 484 557 37,000  Level FlightAware
15:32 38.9630 -115.6980 79° East 484 557 37,000  Level FlightAware
15:33 38.9760 -115.6120 79° East 484 557 37,000  Level FlightAware
15:34 39.0056 -115.1814 79° East 486 559 37,000  Level Salt Lake Center
15:35 39.0253 -115.0131 81° East 479 551 37,000  Level Salt Lake Center
15:36 39.0464 -114.8433 81° East 480 552 37,000  Level Salt Lake Center
15:37 39.0664 -114.6744 81° East 479 551 37,000  Level Salt Lake Center
15:43 39.1830 -113.6470 81° East 495 570 37,000  Level FlightAware
15:43 39.1950 -113.5390 82° East 496 571 37,000  Level FlightAware
15:44 39.2090 -113.4130 82° East 495 570 37,000  Level FlightAware
15:45 39.2180 -113.3230 83° East 495 570 37,000  Level FlightAware
15:45 39.2280 -113.2340 82° East 495 570 37,000  Level FlightAware
15:46 39.2380 -113.1440 82° East 495 570 37,000  Level FlightAware
15:46 39.2480 -113.0550 82° East 495 570 37,000  Level FlightAware
15:47 39.2576 -112.9460 83° East 488 562 37,000  Level FlightAware ADS-B
15:47 39.2664 -112.8600 82° East 485 558 37,000  Level FlightAware ADS-B
15:48 39.2755 -112.7710 82° East 482 555 37,000  Level FlightAware ADS-B
15:48 39.2760 -112.7960 271° West 495 570 37,000  Level FlightAware
15:49 39.2850 -112.7060 83° East 495 570 37,000  Level FlightAware
15:49 39.2977 -112.5520 84° East 474 545 37,000  Level FlightAware ADS-B
15:49 39.3009 -112.5260 81° East 472 543 37,000  Level FlightAware ADS-B
15:50 39.3024 -112.5150 80° East 473 544 37,000  Level FlightAware ADS-B
15:50 39.3035 -112.5070 80° East 473 544 37,000  Level FlightAware ADS-B
15:51 39.3150 -112.4340 78° East 495 570 37,000  Level FlightAware
15:51 39.3633 -112.1790 76° East 466 536 37,000  Level FlightAware ADS-B
15:52 39.3340 -112.2550 244° Southwest 495 570 37,000  Level FlightAware
15:52 39.3817 -112.0800 71° East 465 535 37,000  Level FlightAware ADS-B
15:53 39.4150 -111.9010 76° East 466 536 37,000  Level FlightAware
15:54 39.4286 -111.8180 78° East 466 536 37,000  Level FlightAware ADS-B
15:54 39.4304 -111.7800 86° East 465 535 37,000  Level FlightAware ADS-B
15:54 39.4264 -111.7280 96° East 465 535 37,000  Level FlightAware ADS-B
15:54 39.4203 -111.6870 101° East 465 535 37,000  Level FlightAware ADS-B
15:55 39.3920 -111.5200 102° East 465 535 37,000  Level FlightAware
15:56 39.3800 -111.4350 100° East 467 537 37,000  Level FlightAware
15:56 39.3717 -111.3540 98° East 467 537 37,000  Level FlightAware ADS-B
15:57 39.3661 -111.2910 97° East 467 537 37,000  Level FlightAware ADS-B
15:57 39.3631 -111.2460 95° East 469 540 37,000  Level FlightAware ADS-B
15:58 39.3620 -111.1130 91° East 476 548 37,000  Level FlightAware
15:58 39.3760 -111.0440 75° East 482 555 37,000  Level FlightAware
15:59 39.4100 -110.9590 63° Northeast 488 562 37,000  Level FlightAware
16:00 39.4600 -110.8490 59° Northeast 488 562 37,000  Level FlightAware
16:00 39.5040 -110.7620 57° Northeast 488 562 37,000  Level FlightAware
16:01 39.5600 -110.6680 52° Northeast 488 562 37,000  Level FlightAware
16:01 39.6150 -110.5870 49° Northeast 486 559 37,000  Level FlightAware
16:02 39.6710 -110.5110 46° Northeast 483 556 37,000  Level FlightAware
16:03 39.7210 -110.4420 47° Northeast 481 554 37,000  Level FlightAware
16:03 39.7720 -110.3750 45° Northeast 478 550 37,000  Level FlightAware
16:04 39.8200 -110.3100 46° Northeast 477 549 37,000  Level FlightAware
16:04 39.8920 -110.2230 43° Northeast 475 547 37,000  Level FlightAware
16:05 39.9490 -110.1570 42° Northeast 475 547 37,000  Level FlightAware
16:05 39.9990 -110.0990 42° Northeast 475 547 37,000  Level FlightAware
16:06 40.0590 -110.0270 43° Northeast 476 548 37,000  Level FlightAware
16:07 40.1170 -109.9560 43° Northeast 475 547 37,000  Level FlightAware
16:07 40.1650 -109.8920 46° Northeast 476 548 37,000  Level FlightAware
16:08 40.2170 -109.8130 49° Northeast 478 550 37,000  Level FlightAware
16:09 40.2790 -109.7080 52° Northeast 478 550 37,000  Level FlightAware
16:09 40.3260 -109.6270 53° Northeast 478 550 37,000  Level FlightAware
16:10 40.3780 -109.5280 55° Northeast 479 551 37,000  Level FlightAware
16:10 40.4090 -109.4410 65° Northeast 483 556 37,000  Level FlightAware
16:11 40.4330 -109.3460 72° East 478 550 37,000  Level FlightAware
16:12 40.4550 -109.2400 75° East 475 547 37,000  Level FlightAware
16:12 40.4710 -109.1570 76° East 474 545 37,000  Level FlightAware
16:13 40.4940 -109.0320 76° East 473 544 37,000  Level FlightAware
16:13 40.5130 -108.9320 76° East 472 543 37,000  Level FlightAware
16:14 40.5280 -108.8500 76° East 472 543 37,000  Level FlightAware
16:15 40.5480 -108.7450 76° East 474 545 37,000  Level FlightAware
16:15 40.5680 -108.6370 76° East 476 548 37,000  Level FlightAware
16:16 40.5890 -108.5250 76° East 478 550 37,000  Level FlightAware
16:16 40.6090 -108.4160 76° East 479 551 37,000  Level FlightAware
16:17 40.6260 -108.3220 77° East 480 552 37,000  Level FlightAware
16:18 40.6440 -108.2250 76° East 481 554 37,000  Level FlightAware
16:18 40.6630 -108.1180 77° East 480 552 37,000  Level FlightAware
16:19 40.6800 -108.0230 77° East 480 552 37,000  Level FlightAware
16:19 40.7010 -107.9060 77° East 482 555 37,000  Level FlightAware
16:20 40.7200 -107.8000 77° East 484 557 37,000 420 Level FlightAware
16:21 40.7360 -107.7080 77° East 484 557 37,500 960 Climbing FlightAware
16:21 40.7530 -107.6090 77° East 482 555 38,100 960 Climbing FlightAware
16:22 40.7720 -107.5020 77° East 478 550 38,700 720 Climbing FlightAware
16:22 40.7860 -107.4190 77° East 477 549 39,000 240 Climbing FlightAware
16:23 40.8050 -107.3100 77° East 477 549 39,000  Level FlightAware
16:24 40.8260 -107.1920 77° East 477 549 39,000  Level FlightAware
16:24 40.8410 -107.1050 77° East 477 549 39,000  Level FlightAware
16:25 40.8570 -107.0150 77° East 477 549 39,000  Level FlightAware
16:26 40.8720 -106.9280 77° East 477 549 39,000  Level FlightAware
16:26 40.8870 -106.8410 77° East 477 549 39,000  Level FlightAware
16:27 40.9020 -106.7540 77° East 477 549 39,000  Level FlightAware
16:28 40.9340 -106.5420 79° East 468 539 39,000  Level FlightAware
16:28 40.9510 -106.4390 78° East 469 540 39,000  Level FlightAware
16:29 40.9680 -106.3380 77° East 470 541 39,000  Level FlightAware
16:29 40.9830 -106.2420 78° East 472 543 39,000  Level FlightAware
16:30 40.9990 -106.1490 77° East 474 545 39,000  Level FlightAware
16:30 41.0140 -106.0490 79° East 475 547 39,000  Level FlightAware
16:31 41.0320 -105.9360 78° East 474 545 39,000  Level FlightAware
16:32 41.0470 -105.8440 78° East 474 545 39,000  Level FlightAware
16:32 41.0620 -105.7480 78° East 472 543 39,000  Level FlightAware
16:33 41.0770 -105.6520 78° East 472 543 39,000  Level FlightAware
16:33 41.0950 -105.5390 78° East 473 544 39,000  Level FlightAware
16:34 41.1090 -105.4480 78° East 473 544 39,000  Level FlightAware
16:35 41.1240 -105.3510 78° East 473 544 39,000  Level FlightAware
16:35 41.1400 -105.2480 78° East 473 544 39,000  Level FlightAware
16:36 41.1540 -105.1520 79° East 474 545 39,000  Level FlightAware
16:36 41.1690 -105.0510 79° East 473 544 39,000  Level FlightAware
16:37 41.1840 -104.9540 78° East 474 545 39,000  Level FlightAware
16:37 41.1980 -104.8500 80° East 471 542 39,000  Level FlightAware
16:38 41.1980 -104.7380 90° East 467 537 39,000  Level FlightAware
16:39 41.1900 -104.6350 96° East 467 537 39,000  Level FlightAware
16:39 41.1820 -104.5400 96° East 468 539 39,000  Level FlightAware
16:40 41.1700 -104.4300 98° East 467 537 39,000  Level FlightAware
16:40 41.1610 -104.3380 97° East 468 539 39,000  Level FlightAware
16:41 41.1500 -104.2310 98° East 469 540 39,000  Level FlightAware
16:42 41.1400 -104.1330 98° East 468 539 39,000  Level FlightAware
16:42 41.1310 -104.0370 97° East 469 540 39,000  Level FlightAware
16:43 41.1210 -103.9330 97° East 469 540 39,000  Level FlightAware
16:43 41.1120 -103.8420 97° East 470 541 39,000  Level FlightAware
16:44 41.1020 -103.7410 97° East 470 541 39,000  Level FlightAware
16:45 41.0900 -103.6190 97° East 471 542 39,000  Level FlightAware
16:45 41.0940 -103.4920 88° East 478 550 39,000  Level FlightAware
16:46 41.1200 -103.4010 69° East 479 551 39,000  Level FlightAware
16:47 41.1520 -103.2960 68° East 478 550 39,000  Level FlightAware
16:47 41.1830 -103.2000 67° East 478 550 39,000  Level FlightAware
16:48 41.2120 -103.1030 68° East 478 550 39,000  Level FlightAware
16:48 41.2450 -102.9970 67° East 479 551 39,000  Level FlightAware
16:49 41.2730 -102.9080 67° East 480 552 39,000  Level FlightAware
16:50 41.3010 -102.8160 68° East 481 554 39,000  Level FlightAware
16:50 41.3280 -102.7300 67° East 481 554 39,000  Level FlightAware
16:51 41.3550 -102.6460 67° East 481 554 39,000  Level FlightAware
16:51 41.3820 -102.5630 67° East 481 554 39,000  Level FlightAware
16:52 41.4080 -102.4790 68° East 481 554 39,000  Level FlightAware
16:53 41.4360 -102.3930 67° East 481 554 39,000  Level FlightAware
16:53 41.4700 -102.2840 67° East 481 554 39,000  Level FlightAware
16:54 41.4970 -102.2000 67° East 481 554 39,000  Level FlightAware
16:55 41.5240 -102.1140 67° East 481 554 39,000  Level FlightAware
16:55 41.5510 -102.0310 66° East 481 554 39,000  Level FlightAware
16:56 41.6070 -101.8000 72° East 470 541 39,000  Level FlightAware
16:56 41.6330 -101.7120 68° East 471 542 39,000  Level FlightAware
16:57 41.6590 -101.6270 68° East 471 542 39,000  Level FlightAware
16:58 41.6840 -101.5440 68° East 471 542 39,000  Level FlightAware
16:58 41.7090 -101.4610 68° East 471 542 39,000  Level FlightAware
16:59 41.7340 -101.3780 68° East 471 542 39,000  Level FlightAware
16:59 41.7590 -101.2930 68° East 471 542 39,000  Level FlightAware
17:00 41.7840 -101.2100 68° East 471 542 39,000  Level FlightAware
17:01 41.8170 -101.1020 68° East 471 542 39,000  Level FlightAware
17:01 41.8430 -101.0170 68° East 471 542 39,000  Level FlightAware
17:02 41.8680 -100.9330 68° East 471 542 39,000  Level FlightAware
17:03 41.8930 -100.8500 68° East 471 542 39,000  Level FlightAware
17:03 41.9170 -100.7670 69° East 471 542 39,000  Level FlightAware
17:04 41.9430 -100.6820 68° East 471 542 39,000  Level FlightAware
17:04 41.9680 -100.5990 68° East 471 542 39,000  Level FlightAware
17:05 41.9930 -100.5160 68° East 471 542 39,000  Level FlightAware
17:06 42.0180 -100.4320 68° East 471 542 39,000  Level FlightAware
17:07 42.1250 -99.9788 72° East 463 533 39,000  Level FlightAware ADS-B
17:08 42.1480 -99.8949 70° East 463 533 39,000  Level FlightAware ADS-B
17:08 42.1710 -99.8109 70° East 465 535 39,000  Level FlightAware ADS-B
17:09 42.2213 -99.6255 70° East 466 536 39,000  Level FlightAware ADS-B
17:10 42.2457 -99.5350 70° East 466 536 39,000  Level FlightAware ADS-B
17:11 42.3128 -99.2849 70° East 467 537 39,000  Level FlightAware ADS-B
17:12 42.3421 -99.1751 70° East 466 536 39,000  Level FlightAware ADS-B
17:14 42.4106 -98.9156 70° East 466 536 39,000  Level FlightAware ADS-B
17:14 42.4353 -98.8217 70° East 466 536 39,000  Level FlightAware ADS-B
17:16 42.4785 -98.5434 78° East 478 550 39,000  Level FlightAware ADS-B
17:16 42.4828 -98.4539 86° East 480 552 39,000  Level FlightAware ADS-B
17:17 42.4868 -98.3628 87° East 481 554 39,000  Level FlightAware ADS-B
17:18 42.4966 -98.1494 86° East 482 555 39,000  Level FlightAware ADS-B
17:18 42.5009 -98.0574 86° East 482 555 39,000  Level FlightAware ADS-B
17:19 42.5051 -97.9656 86° East 484 557 39,000  Level FlightAware ADS-B
17:20 42.5143 -97.7583 86° East 487 560 39,000  Level FlightAware ADS-B
17:21 42.5184 -97.6635 87° East 488 562 39,000  Level FlightAware ADS-B
17:21 42.5223 -97.5701 87° East 488 562 39,000  Level FlightAware ADS-B
17:22 42.5290 -97.4160 87° East 487 560 39,000  Level FlightAware
17:22 42.5309 -97.3580 87° East 487 560 39,000  Level FlightAware ADS-B
17:23 42.5347 -97.2604 87° East 487 560 39,000  Level FlightAware ADS-B
17:23 42.5382 -97.1685 87° East 486 559 39,000  Level FlightAware ADS-B
17:24 42.5450 -96.9830 87° East 482 555 39,000  Level FlightAware
17:24 42.5460 -96.9598 87° East 483 556 39,000  Level FlightAware ADS-B
17:25 42.5494 -96.8654 87° East 482 555 39,000  Level FlightAware ADS-B
17:26 42.5525 -96.7743 87° East 481 554 39,000  Level FlightAware ADS-B
17:26 42.5560 -96.6820 87° East 479 551 39,000  Level FlightAware
17:27 42.5595 -96.5681 88° East 479 551 39,000  Level FlightAware ADS-B
17:27 42.5624 -96.4769 87° East 480 552 39,000  Level FlightAware ADS-B
17:28 42.5652 -96.3858 88° East 480 552 39,000  Level FlightAware ADS-B
17:28 42.5690 -96.2480 88° East 480 552 39,000  Level FlightAware
17:29 42.5716 -96.1766 87° East 481 554 39,000  Level FlightAware ADS-B
17:29 42.5743 -96.0837 88° East 481 554 39,000  Level FlightAware ADS-B
17:30 42.5768 -95.9934 88° East 481 554 39,000  Level FlightAware ADS-B
17:31 42.5810 -95.8300 88° East 481 554 39,000  Level FlightAware
17:31 42.5823 -95.7867 88° East 482 555 39,000  Level FlightAware ADS-B
17:32 42.5847 -95.6917 88° East 483 556 39,000  Level FlightAware ADS-B
17:32 42.5870 -95.5984 88° East 483 556 39,000  Level FlightAware ADS-B
17:33 42.5890 -95.5060 88° East 484 557 39,000  Level FlightAware
17:33 42.5920 -95.3840 88° East 484 557 39,000  Level FlightAware ADS-B
17:34 42.5940 -95.2925 88° East 485 558 39,000  Level FlightAware ADS-B
17:34 42.5959 -95.1997 88° East 485 558 39,000  Level FlightAware ADS-B
17:35 42.5980 -95.0900 88° East 485 558 39,000  Level FlightAware
17:35 42.6001 -94.9882 88° East 485 558 39,000  Level FlightAware ADS-B
17:36 42.6018 -94.8957 89° East 485 558 39,000  Level FlightAware ADS-B
17:36 42.6035 -94.8016 89° East 483 556 39,000  Level FlightAware ADS-B
17:37 42.6060 -94.6590 89° East 481 554 39,000  Level FlightAware
17:38 42.6069 -94.5928 89° East 481 554 39,000  Level FlightAware ADS-B
17:38 42.6083 -94.4999 89° East 480 552 39,000  Level FlightAware ADS-B
17:39 42.6096 -94.4073 89° East 480 552 39,000  Level FlightAware ADS-B
17:39 42.6120 -94.2540 89° East 480 552 39,000  Level FlightAware
17:40 42.6121 -94.2041 90° East 480 552 39,000  Level FlightAware ADS-B
17:40 42.6129 -94.1104 89° East 480 552 39,000  Level FlightAware ADS-B
17:41 42.6140 -93.9420 89° East 479 551 39,000  Level FlightAware
17:42 42.6150 -93.8390 89° East 479 551 39,000  Level FlightAware
17:42 42.6149 -93.8116 90° East 478 550 39,000  Level FlightAware ADS-B
17:42 42.6154 -93.7177 90° East 477 549 39,000  Level FlightAware ADS-B
17:43 42.6160 -93.6250 89° East 476 548 39,000  Level FlightAware
17:43 42.6160 -93.5270 90° East 475 547 39,000  Level FlightAware
17:44 42.6160 -93.4240 90° East 473 544 39,000  Level FlightAware
17:45 42.6170 -93.3230 89° East 471 542 39,000  Level FlightAware
17:45 42.6200 -93.2150 88° East 468 539 39,000  Level FlightAware
17:46 42.6220 -93.1130 88° East 467 537 39,000  Level FlightAware
17:46 42.6250 -93.0040 88° East 466 536 39,000  Level FlightAware
17:47 42.6270 -92.9120 88° East 466 536 39,000  Level FlightAware
17:48 42.6290 -92.8110 88° East 466 536 39,000  Level FlightAware
17:48 42.6310 -92.7020 89° East 466 536 39,000  Level FlightAware
17:49 42.6320 -92.6070 89° East 465 535 39,000  Level FlightAware
17:49 42.6340 -92.5000 89° East 465 535 39,000  Level FlightAware
17:50 42.6360 -92.3950 88° East 466 536 39,000  Level FlightAware
17:51 42.6370 -92.2980 89° East 467 537 39,000  Level FlightAware
17:51 42.6390 -92.1920 88° East 468 539 39,000  Level FlightAware
17:52 42.6400 -92.0880 89° East 469 540 39,000  Level FlightAware
17:52 42.6420 -91.9920 88° East 471 542 39,000  Level FlightAware
17:53 42.6430 -91.8900 89° East 472 543 39,000  Level FlightAware
17:53 42.6440 -91.7820 89° East 473 544 39,000  Level FlightAware
17:54 42.6450 -91.6780 89° East 474 545 39,000  Level FlightAware
17:55 42.6460 -91.5800 89° East 475 547 39,000  Level FlightAware
17:55 42.6470 -91.4690 89° East 475 547 39,000  Level FlightAware
17:56 42.6480 -91.3590 89° East 476 548 39,000  Level FlightAware
17:56 42.6480 -91.2660 90° East 475 547 39,000  Level FlightAware
17:57 42.6490 -91.1580 89° East 474 545 39,000  Level FlightAware
17:58 42.6490 -91.0500 90° East 474 545 39,000  Level FlightAware
17:58 42.6500 -90.9610 89° East 474 545 39,000  Level FlightAware
17:59 42.6500 -90.8620 90° East 474 545 39,000  Level FlightAware
17:59 42.6500 -90.7430 90° East 474 545 39,000  Level FlightAware
18:00 42.6500 -90.6410 90° East 474 545 39,000  Level FlightAware
18:00 42.6500 -90.5310 90° East 473 544 39,000  Level FlightAware
18:01 42.6500 -90.4300 90° East 473 544 39,000  Level FlightAware
18:02 42.6500 -90.3320 90° East 473 544 39,000  Level FlightAware
18:02 42.6500 -90.2340 90° East 473 544 39,000  Level FlightAware
18:03 42.6490 -90.1180 91° East 473 544 39,000  Level FlightAware
18:03 42.6490 -90.0170 90° East 473 544 39,000  Level FlightAware
18:04 42.6480 -89.9210 91° East 473 544 39,000  Level FlightAware
18:04 42.6480 -89.8130 90° East 472 543 39,000  Level FlightAware
18:05 42.6470 -89.7040 91° East 472 543 39,000  Level FlightAware
18:06 42.6460 -89.6020 91° East 472 543 39,000  Level FlightAware
18:06 42.6450 -89.5050 91° East 472 543 39,000  Level FlightAware
18:07 42.6440 -89.3950 91° East 472 543 39,000  Level FlightAware
18:07 42.6430 -89.2890 91° East 472 543 39,000  Level FlightAware
18:08 42.6420 -89.1930 91° East 473 544 39,000  Level FlightAware
18:09 42.6410 -89.0890 91° East 474 545 39,000  Level FlightAware
18:09 42.6390 -88.9880 92° East 475 547 39,000  Level FlightAware
18:10 42.6380 -88.8750 91° East 476 548 39,000  Level FlightAware
18:10 42.6360 -88.7680 91° East 478 550 39,000  Level FlightAware
18:11 42.6340 -88.6590 91° East 479 551 39,000  Level FlightAware
18:11 42.6330 -88.5660 91° East 480 552 39,000  Level FlightAware
18:12 42.6310 -88.4540 91° East 481 554 39,000  Level FlightAware
18:13 42.6290 -88.3490 91° East 482 555 39,000  Level FlightAware
18:13 42.6260 -88.2440 92° East 482 555 39,000  Level FlightAware
18:14 42.6240 -88.1320 91° East 483 556 39,000  Level FlightAware
18:14 42.6220 -88.0230 91° East 484 557 39,000  Level FlightAware
18:15 42.6250 -87.9410 87° East 473 544 39,000  Level FlightAware
18:15 42.6360 -87.8900 74° East 458 527 39,000  Level FlightAware
18:16 42.6580 -87.8360 61° Northeast 441 507 39,000  Level FlightAware
18:16 42.6970 -87.7700 51° Northeast 434 499 39,000  Level FlightAware
18:17 42.7470 -87.6920 49° Northeast 433 498 39,000  Level FlightAware
18:17 42.7860 -87.6220 53° Northeast 440 506 39,000  Level FlightAware
18:18 42.8010 -87.5720 68° East 448 516 39,000  Level FlightAware
18:18 42.8080 -87.5210 79° East 455 524 39,000  Level FlightAware
18:18 42.8040 -87.4290 93° East 462 532 39,000  Level FlightAware
18:19 42.7970 -87.3210 95° East 461 531 39,000  Level FlightAware
18:20 42.7890 -87.2120 96° East 462 532 39,000  Level FlightAware
18:20 42.7830 -87.1210 95° East 463 533 39,000  Level FlightAware
18:21 42.7750 -87.0200 96° East 464 534 39,000  Level FlightAware
18:21 42.7680 -86.9200 95° East 464 534 39,000  Level FlightAware
18:22 42.7610 -86.8200 95° East 464 534 39,000  Level FlightAware
18:23 42.7530 -86.7200 96° East 465 535 39,000  Level FlightAware
18:23 42.7460 -86.6220 96° East 465 535 39,000  Level FlightAware
18:24 42.7370 -86.5050 96° East 465 535 39,000  Level FlightAware
18:24 42.7280 -86.3910 96° East 465 535 39,000  Level FlightAware
18:25 42.7200 -86.2840 96° East 466 536 39,000  Level FlightAware
18:26 42.7120 -86.1830 96° East 466 536 39,000  Level FlightAware
18:26 42.7030 -86.0820 97° East 466 536 39,000  Level FlightAware
18:27 42.6950 -85.9770 96° East 466 536 39,000  Level FlightAware
18:28 42.6840 -85.8500 97° East 467 537 39,000  Level FlightAware
18:28 42.6760 -85.7530 96° East 468 539 39,000  Level FlightAware
18:29 42.6680 -85.6550 96° East 469 540 39,000  Level FlightAware
18:29 42.6590 -85.5440 96° East 470 541 39,000  Level FlightAware
18:30 42.6500 -85.4430 97° East 471 542 39,000  Level FlightAware
18:30 42.6420 -85.3480 96° East 472 543 39,000  Level FlightAware
18:31 42.6320 -85.2430 97° East 474 545 39,000  Level FlightAware
18:32 42.6230 -85.1390 97° East 475 547 39,000  Level FlightAware
18:32 42.6140 -85.0400 97° East 476 548 39,000  Level FlightAware
18:33 42.6050 -84.9380 97° East 478 550 39,000  Level FlightAware
18:33 42.5950 -84.8280 97° East 478 550 39,000  Level FlightAware
18:34 42.5850 -84.7190 97° East 479 551 39,000  Level FlightAware
18:34 42.5770 -84.6290 97° East 479 551 39,000  Level FlightAware
18:35 42.5660 -84.5160 97° East 478 550 39,000  Level FlightAware
18:36 42.5560 -84.4100 97° East 478 550 39,000  Level FlightAware
18:36 42.5460 -84.3090 98° East 479 551 39,000  Level FlightAware
18:37 42.5360 -84.2050 97° East 479 551 39,000  Level FlightAware
18:37 42.5270 -84.0970 96° East 475 547 39,000  Level FlightAware
18:38 42.5200 -83.9960 95° East 477 549 39,000  Level FlightAware
18:39 42.5110 -83.8830 96° East 482 555 39,000  Level FlightAware
18:39 42.5030 -83.7810 96° East 485 558 39,000  Level FlightAware
18:40 42.4930 -83.6550 96° East 488 562 39,000  Level FlightAware
18:41 42.4840 -83.5460 96° East 490 564 39,000  Level FlightAware
18:41 42.4750 -83.4460 97° East 491 565 39,000  Level FlightAware
18:42 42.4660 -83.3360 96° East 492 566 39,000  Level FlightAware
18:42 42.4570 -83.2280 96° East 493 567 39,000  Level FlightAware
18:43 42.4480 -83.1290 97° East 492 566 39,000  Level FlightAware
18:43 42.4380 -83.0110 97° East 491 565 39,000  Level FlightAware
18:44 42.4290 -82.9070 97° East 490 564 39,000  Level FlightAware
18:45 42.4190 -82.7950 97° East 489 563 39,000  Level FlightAware
18:45 42.4100 -82.6940 97° East 487 560 39,000  Level FlightAware
18:46 42.4010 -82.5980 97° East 485 558 39,000  Level FlightAware
18:46 42.3910 -82.4930 97° East 482 555 39,000  Level FlightAware
18:47 42.3810 -82.3810 97° East 479 551 39,000  Level FlightAware
18:47 42.3710 -82.2790 98° East 476 548 39,000  Level FlightAware
18:48 42.3610 -82.1750 97° East 475 547 39,000  Level FlightAware
18:49 42.3530 -82.0880 97° East 475 547 39,000  Level FlightAware
18:49 42.3430 -81.9790 97° East 474 545 39,000  Level FlightAware
18:50 42.3330 -81.8760 97° East 474 545 39,000  Level FlightAware
18:50 42.3240 -81.7930 98° East 474 545 39,000  Level FlightAware
18:51 42.3140 -81.6890 97° East 475 547 39,000  Level FlightAware
18:52 42.3000 -81.5530 98° East 476 548 39,000  Level FlightAware
18:52 42.2890 -81.4360 97° East 477 549 39,000  Level FlightAware
18:53 42.2730 -81.2890 98° East 479 551 39,000  Level FlightAware
18:54 42.2640 -81.2030 98° East 479 551 39,000  Level FlightAware
18:54 42.2530 -81.0980 98° East 480 552 39,000  Level FlightAware
18:55 42.2430 -80.9970 98° East 480 552 39,000  Level FlightAware
18:55 42.2310 -80.8900 99° East 481 554 39,000  Level FlightAware
18:56 42.2200 -80.7870 98° East 482 555 39,000  Level FlightAware
18:57 42.2080 -80.6770 98° East 482 555 39,000  Level FlightAware
18:57 42.1980 -80.5790 98° East 483 556 39,000  Level FlightAware
18:58 42.1860 -80.4760 99° East 483 556 39,000  Level FlightAware
18:58 42.1750 -80.3730 98° East 483 556 39,000  Level FlightAware
18:59 42.1610 -80.2510 99° East 482 555 39,000  Level FlightAware
18:59 42.1510 -80.1650 99° East 482 555 39,000  Level FlightAware
19:00 42.1410 -80.0700 98° East 483 556 39,000  Level FlightAware
19:01 42.1270 -79.9540 99° East 483 556 39,000  Level FlightAware
19:01 42.1150 -79.8440 98° East 484 557 39,000  Level FlightAware
19:02 42.1020 -79.7390 99° East 485 558 39,000  Level FlightAware
19:03 42.0870 -79.6120 99° East 485 558 39,000  Level FlightAware
19:03 42.0760 -79.5110 98° East 485 558 39,000  Level FlightAware
19:04 42.0620 -79.3950 99° East 485 558 39,000  Level FlightAware
19:04 42.0480 -79.2810 99° East 485 558 39,000  Level FlightAware
19:05 42.0320 -79.1520 99° East 485 558 39,000  Level FlightAware
19:06 42.0200 -79.0510 99° East 485 558 39,000  Level FlightAware
19:06 42.0090 -78.9620 99° East 486 559 39,000  Level FlightAware
19:07 41.9960 -78.8610 100° East 486 559 39,000  Level FlightAware
19:07 41.9800 -78.7370 100° East 486 559 39,000  Level FlightAware
19:08 41.9670 -78.6350 100° East 487 560 39,000  Level FlightAware
19:09 41.9540 -78.5330 100° East 486 559 39,000  Level FlightAware
19:09 41.9400 -78.4250 100° East 482 555 39,000  Level FlightAware
19:10 41.9300 -78.3440 99° East 474 545 39,000  Level FlightAware
19:10 41.9160 -78.2370 100° East 467 537 39,000  Level FlightAware
19:11 41.9030 -78.1340 100° East 464 534 39,000  Level FlightAware
19:12 41.8880 -78.0260 101° East 464 534 39,000  Level FlightAware
19:12 41.8750 -77.9260 100° East 465 535 39,000  Level FlightAware
19:13 41.8580 -77.8290 103° East 464 534 39,000  Level FlightAware
19:13 41.8340 -77.7340 109° East 463 533 39,000  Level FlightAware
19:14 41.8080 -77.6340 109° East 463 533 39,000  Level FlightAware
19:14 41.7810 -77.5350 110° East 464 534 39,000  Level FlightAware
19:15 41.7590 -77.4500 109° East 465 535 39,000  Level FlightAware
19:16 41.7340 -77.3580 110° East 466 536 39,000  Level FlightAware
19:16 41.7060 -77.2530 110° East 466 536 39,000 -480 Level FlightAware
19:17 41.6830 -77.1670 110° East 468 539 38,500 -780 Descending FlightAware
19:17 41.6610 -77.0840 110° East 461 531 38,200 -720 Descending FlightAware
19:18 41.6350 -76.9900 110° East 455 524 37,700 -1,500 Descending FlightAware
19:18 41.6100 -76.8980 110° East 460 529 36,500 -1,920 Descending FlightAware
19:19 41.5820 -76.7940 110° East 465 535 35,300 -1,740 Descending FlightAware
19:20 41.5590 -76.7110 110° East 464 534 34,500 -1,740 Descending FlightAware
19:20 41.5300 -76.6050 110° East 463 533 33,300 -1,620 Descending FlightAware
19:21 41.5040 -76.5130 111° Southeast 459 528 32,500 -1,680 Descending FlightAware
19:21 41.4820 -76.4320 110° East 459 528 31,500 -1,800 Descending FlightAware
19:22 41.4540 -76.3320 110° East 459 528 30,400 -1,620 Descending FlightAware
19:23 41.4240 -76.2250 110° East 454 522 29,500 -1,440 Descending FlightAware
19:23 41.4030 -76.1480 110° East 450 518 28,800 -1,440 Descending FlightAware
19:24 41.3750 -76.0510 111° Southeast 445 512 27,900 -1,440 Descending FlightAware
19:24 41.3520 -75.9660 110° East 442 509 27,100 -1,380 Descending FlightAware
19:25 41.3240 -75.8680 111° Southeast 437 503 26,200 -1,440 Descending FlightAware
19:25 41.3030 -75.7960 111° Southeast 436 502 25,500 -1,380 Descending FlightAware
19:26 41.2750 -75.6990 111° Southeast 431 496 24,700 -1,440 Descending FlightAware
19:27 41.2480 -75.6130 113° Southeast 427 491 23,800 -1,200 Descending FlightAware
19:27 41.2190 -75.5280 114° Southeast 417 480 23,300 -720 Descending FlightAware
19:28 41.1940 -75.4520 114° Southeast 403 464 23,000 -300 Descending FlightAware
19:28 41.1670 -75.3730 114° Southeast 404 465 23,000  Level FlightAware
19:29 41.1390 -75.2890 114° Southeast 410 472 23,000  Level FlightAware
19:30 41.1110 -75.2070 114° Southeast 410 472 23,000  Level FlightAware
19:30 41.0840 -75.1270 114° Southeast 390 449 23,000  Level FlightAware
19:31 41.0610 -75.0580 114° Southeast 373 429 23,000  Level FlightAware
19:31 41.0350 -74.9840 115° Southeast 373 429 23,000  Level FlightAware
19:32 41.0190 -74.9270 110° East 390 449 23,000  Level FlightAware
19:32 41.0160 -74.8860 96° East 407 468 23,000  Level FlightAware
19:32 41.0190 -74.8580 82° East 414 476 23,000  Level FlightAware
19:33 41.0310 -74.8150 70° East 422 486 23,000  Level FlightAware
19:33 41.0620 -74.7500 58° Northeast 425 489 23,000  Level FlightAware
19:34 41.1010 -74.6720 56° Northeast 422 486 23,000 -600 Level FlightAware
19:34 41.1370 -74.6010 56° Northeast 418 481 22,300 -840 Descending FlightAware
19:35 41.1780 -74.5200 56° Northeast 416 479 22,000 -300 Descending FlightAware
19:35 41.2140 -74.4500 56° Northeast 419 482 22,000  Level FlightAware
19:36 41.2470 -74.3740 60° Northeast 414 476 22,000  Level FlightAware
19:36 41.2540 -74.3320 77° East 405 466 22,000  Level FlightAware
19:37 41.2530 -74.2840 92° East 393 452 22,000  Level FlightAware
19:37 41.2470 -74.2590 108° East 380 437 22,000 -240 Level FlightAware
19:37 41.2320 -74.2270 122° Southeast 363 418 21,900 -840 Descending FlightAware
19:37 41.2156 -74.2037 133° Southeast 352 405 21,600 -960 Descending FlightAware ADS-B
19:38 41.2000 -74.1874 142° Southeast 342 394 21,500 -780 Descending FlightAware ADS-B
19:38 41.1420 -74.1580 159° South 315 362 20,900 -840 Descending FlightAware
19:39 41.0979 -74.1531 175° South 310 357 20,500 -720 Descending FlightAware ADS-B
19:39 41.0519 -74.1490 176° South 314 361 20,200 -780 Descending FlightAware ADS-B
19:40 41.0045 -74.1442 176° South 309 356 19,700 -1,020 Descending FlightAware ADS-B
19:40 40.9520 -74.1370 174° South 313 360 19,000 -900 Descending FlightAware
19:41 40.9390 -74.1300 158° South 328 377 19,000  Level FlightAware
19:41 40.9161 -74.1018 137° Southeast 355 409 19,000  Level FlightAware ADS-B
19:41 40.9064 -74.0806 121° Southeast 364 419 19,000 -480 Level FlightAware ADS-B
19:42 40.8819 -74.0226 119° Southeast 357 411 18,700 -1,140 Descending FlightAware ADS-B
19:42 40.8580 -73.9670 120° Southeast 353 406 17,900 -1,500 Descending FlightAware
19:43 40.8330 -73.9090 120° Southeast 347 399 17,200 -1,500 Descending FlightAware
19:43 40.8020 -73.8380 120° Southeast 343 395 16,200 -1,560 Descending FlightAware
19:44 40.7920 -73.8110 116° Southeast 347 399 15,800 -1,260 Descending FlightAware
19:44 40.7790 -73.7440 104° East 341 392 15,200 -1,380 Descending FlightAware
19:45 40.7670 -73.6730 103° East 336 387 14,300 -1,440 Descending FlightAware
19:45 40.7610 -73.5990 96° East 331 381 13,500 -1,320 Descending FlightAware
19:46 40.7570 -73.5320 94° East 324 373 12,800 -1,380 Descending FlightAware
19:46 40.7530 -73.4630 94° East 315 362 12,000 -1,380 Descending FlightAware
19:47 40.7460 -73.3970 98° East 306 352 11,200 -1,440 Descending FlightAware
19:47 40.7410 -73.3850 119° Southeast 303 349 11,000 -1,620 Descending FlightAware
19:47 40.7290 -73.3690 135° Southeast 297 342 10,700 -1,440 Descending FlightAware
19:47 40.7190 -73.3620 152° Southeast 291 335 10,500 -1,500 Descending FlightAware
19:48 40.7080 -73.3580 165° South 286 329 10,300 -1,140 Descending FlightAware
19:48 40.6750 -73.3710 197° South 272 313 9,800 -1,200 Descending FlightAware
19:48 40.6530 -73.3920 216° Southwest 269 310 9,300 -1,440 Descending FlightAware
19:49 40.6450 -73.3990 214° Southwest 269 310 9,100 -1,620 Descending FlightAware
19:49 40.6220 -73.4200 215° Southwest 269 310 8,500 -1,440 Descending FlightAware
19:49 40.6060 -73.4350 215° Southwest 269 310 8,200 -1,320 Descending FlightAware
19:50 40.5850 -73.4540 214° Southwest 267 307 7,700 -1,260 Descending FlightAware
19:50 40.5540 -73.4780 210° Southwest 268 308 7,200 -780 Descending FlightAware
19:50 40.5320 -73.4910 204° Southwest 273 314 7,100 -180 Descending FlightAware
19:51 40.5020 -73.5080 203° Southwest 273 314 7,100 -180 Level FlightAware
19:51 40.4790 -73.5210 203° Southwest 266 306 7,000 -780 Descending FlightAware
19:51 40.4570 -73.5340 204° Southwest 266 306 6,600 -1,380 Descending FlightAware
19:52 40.4360 -73.5460 204° Southwest 267 307 6,100 -1,380 Descending FlightAware
19:52 40.4120 -73.5600 204° Southwest 266 306 5,700 -1,200 Descending FlightAware
19:52 40.3900 -73.5740 206° Southwest 265 305 5,300 -1,260 Descending FlightAware
19:52 40.3880 -73.5760 217° Southwest 265 305 5,200 -1,320 Descending FlightAware
19:53 40.3790 -73.5880 225° Southwest 262 302 5,000 -1,320 Descending FlightAware
19:53 40.3730 -73.6010 239° Southwest 259 298 4,800 -1,440 Descending FlightAware
19:53 40.3620 -73.6320 245° Southwest 259 298 4,300 -1,380 Descending FlightAware
19:54 40.3470 -73.6720 244° Southwest 258 297 3,700 -1,020 Descending FlightAware
19:54 40.3330 -73.7080 243° Southwest 248 285 3,400 -660 Descending FlightAware
19:54 40.3230 -73.7360 245° Southwest 239 275 3,200 -780 Descending FlightAware
19:54 40.3220 -73.7420 258° West 233 268 3,100 -660 Descending FlightAware
19:55 40.3300 -73.7830 284° West 209 241 2,800 -600 Descending FlightAware
19:55 40.3370 -73.8050 293° West 203 234 2,600 -720 Descending FlightAware
19:56 40.3460 -73.8330 293° West 199 229 2,300 -720 Descending FlightAware
19:56 40.3530 -73.8550 293° West 198 228 2,100 -360 Descending FlightAware
19:56 40.3600 -73.8710 300° West 197 227 2,100  Level FlightAware
19:57 40.3700 -73.8800 326° Northwest 198 228 2,100  Level FlightAware
19:57 40.3860 -73.8890 337° Northwest 191 220 2,100  Level FlightAware
19:57 40.4020 -73.8960 342° North 172 198 2,100  Level FlightAware
19:57 40.4080 -73.8980 346° North 167 192 2,100  Level FlightAware
19:57 40.4140 -73.8990 353° North 163 188 2,100  Level FlightAware
19:58 40.4240 -73.9000 356° North 169 194 2,100  Level FlightAware
19:58 40.4410 -73.8990 North 166 191 2,100  Level FlightAware
19:58 40.4510 -73.8980 North 162 186 2,100  Level FlightAware
19:59 40.4650 -73.8920 18° North 159 183 2,100  Level FlightAware
19:59 40.4760 -73.8860 23° Northeast 161 185 2,100  Level FlightAware
19:59 40.4910 -73.8760 27° Northeast 163 188 2,100 -120 Level FlightAware
20:00 40.5167 -73.8500 27° Northeast 164 189 2,000 -300 Descending New York TRACON
20:01 40.5500 -73.8333 21° North 168 193 1,600 -600 Descending New York TRACON
20:02 40.5833 -73.8000 37° Northeast 131 151 900 -720 Descending New York TRACON
20:03 40.6167 -73.7667 37° Northeast 127 146 200 -720 Descending New York TRACON